sensor_id;sensor_type;location;lat;lon;timestamp;P1;durP1;ratioP1;P2;durP2;ratioP2
21192;SDS011;10754;51.106;7.164;2023-06-14T00:00:38;4.22;;;2.92;;
21192;SDS011;10754;51.106;7.164;2023-06-14T00:03:08;3.53;;;3.22;;
21192;SDS011;10754;51.106;7.164;2023-06-14T00:05:35;5.13;;;3.00;;
21192;SDS011;10754;51.106;7.164;2023-06-14T00:08:05;4.85;;;3.10;;
21192;SDS011;10754;51.106;7.164;2023-06-14T00:10:33;4.50;;;3.63;;
21192;SDS011;10754;51.106;7.164;2023-06-14T00:13:00;3.25;;;2.95;;
21192;SDS011;10754;51.106;7.164;2023-06-14T00:15:26;3.95;;;3.55;;
21192;SDS011;10754;51.106;7.164;2023-06-14T00:17:53;2.90;;;2.70;;
21192;SDS011;10754;51.106;7.164;2023-06-14T00:20:19;3.90;;;3.60;;
21192;SDS011;10754;51.106;7.164;2023-06-14T00:22:45;3.60;;;3.10;;
21192;SDS011;10754;51.106;7.164;2023-06-14T00:25:11;3.22;;;3.00;;
21192;SDS011;10754;51.106;7.164;2023-06-14T00:27:36;3.47;;;2.70;;
21192;SDS011;10754;51.106;7.164;2023-06-14T00:30:03;3.90;;;2.90;;
21192;SDS011;10754;51.106;7.164;2023-06-14T00:32:28;6.03;;;3.35;;
21192;SDS011;10754;51.106;7.164;2023-06-14T00:34:54;3.38;;;3.08;;
21192;SDS011;10754;51.106;7.164;2023-06-14T00:37:20;6.90;;;2.95;;
21192;SDS011;10754;51.106;7.164;2023-06-14T00:39:45;2.85;;;2.65;;
21192;SDS011;10754;51.106;7.164;2023-06-14T00:42:11;6.45;;;3.40;;
21192;SDS011;10754;51.106;7.164;2023-06-14T00:44:36;3.15;;;2.95;;
21192;SDS011;10754;51.106;7.164;2023-06-14T00:47:02;4.90;;;3.17;;
21192;SDS011;10754;51.106;7.164;2023-06-14T00:49:28;3.17;;;2.88;;
21192;SDS011;10754;51.106;7.164;2023-06-14T00:51:54;4.00;;;2.60;;
21192;SDS011;10754;51.106;7.164;2023-06-14T00:54:20;3.55;;;3.25;;
21192;SDS011;10754;51.106;7.164;2023-06-14T00:56:46;3.00;;;2.80;;
21192;SDS011;10754;51.106;7.164;2023-06-14T00:59:11;2.85;;;2.63;;
21192;SDS011;10754;51.106;7.164;2023-06-14T01:01:37;4.40;;;2.70;;
21192;SDS011;10754;51.106;7.164;2023-06-14T01:04:03;3.05;;;2.70;;
21192;SDS011;10754;51.106;7.164;2023-06-14T01:06:50;4.28;;;3.17;;
21192;SDS011;10754;51.106;7.164;2023-06-14T01:09:55;4.32;;;2.90;;
21192;SDS011;10754;51.106;7.164;2023-06-14T01:14:52;3.20;;;2.92;;
21192;SDS011;10754;51.106;7.164;2023-06-14T01:17:19;3.53;;;2.63;;
21192;SDS011;10754;51.106;7.164;2023-06-14T01:19:46;2.90;;;2.70;;
21192;SDS011;10754;51.106;7.164;2023-06-14T01:22:12;3.95;;;3.10;;
21192;SDS011;10754;51.106;7.164;2023-06-14T01:24:37;3.70;;;2.78;;
21192;SDS011;10754;51.106;7.164;2023-06-14T01:27:04;3.15;;;2.72;;
21192;SDS011;10754;51.106;7.164;2023-06-14T01:29:32;2.67;;;2.30;;
21192;SDS011;10754;51.106;7.164;2023-06-14T01:31:58;3.75;;;2.58;;
21192;SDS011;10754;51.106;7.164;2023-06-14T01:34:25;3.55;;;2.58;;
21192;SDS011;10754;51.106;7.164;2023-06-14T01:36:51;3.20;;;2.42;;
21192;SDS011;10754;51.106;7.164;2023-06-14T01:39:19;2.97;;;2.70;;
21192;SDS011;10754;51.106;7.164;2023-06-14T01:41:46;2.97;;;2.78;;
21192;SDS011;10754;51.106;7.164;2023-06-14T01:44:12;2.80;;;2.60;;
21192;SDS011;10754;51.106;7.164;2023-06-14T01:46:40;3.17;;;2.80;;
21192;SDS011;10754;51.106;7.164;2023-06-14T01:49:06;3.63;;;2.85;;
21192;SDS011;10754;51.106;7.164;2023-06-14T01:51:33;3.42;;;2.70;;
21192;SDS011;10754;51.106;7.164;2023-06-14T01:53:58;2.90;;;2.47;;
21192;SDS011;10754;51.106;7.164;2023-06-14T01:56:25;3.38;;;2.60;;
21192;SDS011;10754;51.106;7.164;2023-06-14T01:58:51;2.80;;;2.58;;
21192;SDS011;10754;51.106;7.164;2023-06-14T02:01:16;2.97;;;2.50;;
21192;SDS011;10754;51.106;7.164;2023-06-14T02:03:43;2.72;;;2.53;;
21192;SDS011;10754;51.106;7.164;2023-06-14T02:06:10;2.60;;;2.40;;
21192;SDS011;10754;51.106;7.164;2023-06-14T02:08:35;4.47;;;2.58;;
21192;SDS011;10754;51.106;7.164;2023-06-14T02:11:01;2.85;;;2.53;;
21192;SDS011;10754;51.106;7.164;2023-06-14T02:13:26;2.75;;;2.17;;
21192;SDS011;10754;51.106;7.164;2023-06-14T02:15:52;2.42;;;2.25;;
21192;SDS011;10754;51.106;7.164;2023-06-14T02:18:19;5.63;;;2.72;;
21192;SDS011;10754;51.106;7.164;2023-06-14T02:20:45;2.83;;;2.50;;
21192;SDS011;10754;51.106;7.164;2023-06-14T02:23:10;2.58;;;2.38;;
21192;SDS011;10754;51.106;7.164;2023-06-14T02:25:36;2.53;;;2.30;;
21192;SDS011;10754;51.106;7.164;2023-06-14T02:28:02;2.70;;;2.50;;
21192;SDS011;10754;51.106;7.164;2023-06-14T02:30:27;2.97;;;2.70;;
21192;SDS011;10754;51.106;7.164;2023-06-14T02:32:53;2.55;;;2.35;;
21192;SDS011;10754;51.106;7.164;2023-06-14T02:35:18;2.58;;;2.38;;
21192;SDS011;10754;51.106;7.164;2023-06-14T02:37:45;2.67;;;2.47;;
21192;SDS011;10754;51.106;7.164;2023-06-14T02:40:11;3.65;;;2.47;;
21192;SDS011;10754;51.106;7.164;2023-06-14T02:42:37;3.45;;;2.60;;
21192;SDS011;10754;51.106;7.164;2023-06-14T02:45:02;4.10;;;2.60;;
21192;SDS011;10754;51.106;7.164;2023-06-14T02:47:29;3.38;;;2.38;;
21192;SDS011;10754;51.106;7.164;2023-06-14T02:49:55;2.55;;;2.35;;
21192;SDS011;10754;51.106;7.164;2023-06-14T02:52:20;3.05;;;2.20;;
21192;SDS011;10754;51.106;7.164;2023-06-14T02:54:46;4.20;;;2.42;;
21192;SDS011;10754;51.106;7.164;2023-06-14T02:57:12;4.22;;;2.85;;
21192;SDS011;10754;51.106;7.164;2023-06-14T02:59:38;4.50;;;2.30;;
21192;SDS011;10754;51.106;7.164;2023-06-14T03:02:03;3.75;;;2.55;;
21192;SDS011;10754;51.106;7.164;2023-06-14T03:04:30;4.20;;;2.20;;
21192;SDS011;10754;51.106;7.164;2023-06-14T03:06:59;2.67;;;2.35;;
21192;SDS011;10754;51.106;7.164;2023-06-14T03:09:27;2.80;;;2.28;;
21192;SDS011;10754;51.106;7.164;2023-06-14T03:11:53;2.72;;;2.53;;
21192;SDS011;10754;51.106;7.164;2023-06-14T03:14:19;3.75;;;2.22;;
21192;SDS011;10754;51.106;7.164;2023-06-14T03:16:46;2.70;;;2.50;;
21192;SDS011;10754;51.106;7.164;2023-06-14T03:19:11;2.90;;;2.63;;
21192;SDS011;10754;51.106;7.164;2023-06-14T03:21:37;2.53;;;2.33;;
21192;SDS011;10754;51.106;7.164;2023-06-14T03:24:03;2.38;;;2.17;;
21192;SDS011;10754;51.106;7.164;2023-06-14T03:26:29;3.30;;;2.10;;
21192;SDS011;10754;51.106;7.164;2023-06-14T03:28:56;2.88;;;2.33;;
21192;SDS011;10754;51.106;7.164;2023-06-14T03:31:21;2.45;;;2.25;;
21192;SDS011;10754;51.106;7.164;2023-06-14T03:33:48;5.80;;;2.53;;
21192;SDS011;10754;51.106;7.164;2023-06-14T03:36:14;2.30;;;2.10;;
21192;SDS011;10754;51.106;7.164;2023-06-14T03:38:39;3.03;;;2.22;;
21192;SDS011;10754;51.106;7.164;2023-06-14T03:41:05;3.53;;;2.20;;
21192;SDS011;10754;51.106;7.164;2023-06-14T03:43:30;5.30;;;2.88;;
21192;SDS011;10754;51.106;7.164;2023-06-14T03:45:56;3.45;;;2.65;;
21192;SDS011;10754;51.106;7.164;2023-06-14T03:48:22;3.65;;;2.63;;
21192;SDS011;10754;51.106;7.164;2023-06-14T03:50:47;2.47;;;2.28;;
21192;SDS011;10754;51.106;7.164;2023-06-14T03:53:13;3.17;;;2.50;;
21192;SDS011;10754;51.106;7.164;2023-06-14T03:55:38;2.40;;;2.20;;
21192;SDS011;10754;51.106;7.164;2023-06-14T03:58:04;3.13;;;2.47;;
21192;SDS011;10754;51.106;7.164;2023-06-14T04:00:30;2.88;;;2.65;;
21192;SDS011;10754;51.106;7.164;2023-06-14T04:02:55;2.97;;;2.78;;
21192;SDS011;10754;51.106;7.164;2023-06-14T04:05:21;2.72;;;2.40;;
21192;SDS011;10754;51.106;7.164;2023-06-14T04:07:46;3.55;;;2.45;;
21192;SDS011;10754;51.106;7.164;2023-06-14T04:10:13;3.42;;;2.40;;
21192;SDS011;10754;51.106;7.164;2023-06-14T04:12:40;2.83;;;2.50;;
21192;SDS011;10754;51.106;7.164;2023-06-14T04:15:06;3.38;;;2.42;;
21192;SDS011;10754;51.106;7.164;2023-06-14T04:17:33;3.22;;;2.58;;
21192;SDS011;10754;51.106;7.164;2023-06-14T04:19:59;2.97;;;2.40;;
21192;SDS011;10754;51.106;7.164;2023-06-14T04:22:25;3.78;;;2.90;;
21192;SDS011;10754;51.106;7.164;2023-06-14T04:24:53;4.38;;;2.47;;
21192;SDS011;10754;51.106;7.164;2023-06-14T04:27:21;3.83;;;2.38;;
21192;SDS011;10754;51.106;7.164;2023-06-14T04:29:50;2.35;;;2.15;;
21192;SDS011;10754;51.106;7.164;2023-06-14T04:32:25;2.88;;;2.67;;
21192;SDS011;10754;51.106;7.164;2023-06-14T04:34:54;4.75;;;2.30;;
21192;SDS011;10754;51.106;7.164;2023-06-14T04:37:20;2.97;;;2.30;;
21192;SDS011;10754;51.106;7.164;2023-06-14T04:39:47;3.75;;;2.55;;
21192;SDS011;10754;51.106;7.164;2023-06-14T04:42:13;3.45;;;2.28;;
21192;SDS011;10754;51.106;7.164;2023-06-14T04:44:40;3.45;;;2.53;;
21192;SDS011;10754;51.106;7.164;2023-06-14T04:47:06;2.28;;;2.05;;
21192;SDS011;10754;51.106;7.164;2023-06-14T04:49:32;3.53;;;2.58;;
21192;SDS011;10754;51.106;7.164;2023-06-14T04:51:59;2.20;;;1.98;;
21192;SDS011;10754;51.106;7.164;2023-06-14T04:54:26;2.90;;;2.13;;
21192;SDS011;10754;51.106;7.164;2023-06-14T04:56:52;3.22;;;2.47;;
21192;SDS011;10754;51.106;7.164;2023-06-14T04:59:20;3.35;;;2.30;;
21192;SDS011;10754;51.106;7.164;2023-06-14T05:01:48;3.38;;;2.60;;
21192;SDS011;10754;51.106;7.164;2023-06-14T05:04:14;4.00;;;2.78;;
21192;SDS011;10754;51.106;7.164;2023-06-14T05:06:43;3.67;;;2.70;;
21192;SDS011;10754;51.106;7.164;2023-06-14T05:09:13;2.53;;;1.95;;
21192;SDS011;10754;51.106;7.164;2023-06-14T05:11:39;3.63;;;2.30;;
21192;SDS011;10754;51.106;7.164;2023-06-14T05:14:07;3.40;;;2.63;;
21192;SDS011;10754;51.106;7.164;2023-06-14T05:16:32;3.45;;;2.42;;
21192;SDS011;10754;51.106;7.164;2023-06-14T05:18:58;3.58;;;2.53;;
21192;SDS011;10754;51.106;7.164;2023-06-14T05:21:24;2.28;;;2.10;;
21192;SDS011;10754;51.106;7.164;2023-06-14T05:23:49;3.97;;;2.33;;
21192;SDS011;10754;51.106;7.164;2023-06-14T05:26:16;3.60;;;2.47;;
21192;SDS011;10754;51.106;7.164;2023-06-14T05:28:41;3.33;;;2.22;;
21192;SDS011;10754;51.106;7.164;2023-06-14T05:31:07;2.75;;;2.40;;
21192;SDS011;10754;51.106;7.164;2023-06-14T05:33:32;2.75;;;2.40;;
21192;SDS011;10754;51.106;7.164;2023-06-14T05:35:58;5.03;;;2.55;;
21192;SDS011;10754;51.106;7.164;2023-06-14T05:38:23;3.80;;;2.33;;
21192;SDS011;10754;51.106;7.164;2023-06-14T05:40:50;3.03;;;2.20;;
21192;SDS011;10754;51.106;7.164;2023-06-14T05:43:15;6.10;;;2.35;;
21192;SDS011;10754;51.106;7.164;2023-06-14T05:45:41;3.70;;;2.00;;
21192;SDS011;10754;51.106;7.164;2023-06-14T05:48:07;2.88;;;2.40;;
21192;SDS011;10754;51.106;7.164;2023-06-14T05:50:32;3.53;;;2.30;;
21192;SDS011;10754;51.106;7.164;2023-06-14T05:52:58;2.45;;;2.15;;
21192;SDS011;10754;51.106;7.164;2023-06-14T05:55:24;4.10;;;2.10;;
21192;SDS011;10754;51.106;7.164;2023-06-14T05:57:50;4.70;;;2.00;;
21192;SDS011;10754;51.106;7.164;2023-06-14T06:00:15;2.38;;;2.15;;
21192;SDS011;10754;51.106;7.164;2023-06-14T06:02:42;3.78;;;2.10;;
21192;SDS011;10754;51.106;7.164;2023-06-14T06:05:08;3.30;;;2.35;;
21192;SDS011;10754;51.106;7.164;2023-06-14T06:07:35;2.00;;;1.50;;
21192;SDS011;10754;51.106;7.164;2023-06-14T06:10:01;5.68;;;2.03;;
21192;SDS011;10754;51.106;7.164;2023-06-14T06:12:27;4.22;;;2.10;;
21192;SDS011;10754;51.106;7.164;2023-06-14T06:14:52;4.40;;;2.13;;
21192;SDS011;10754;51.106;7.164;2023-06-14T06:17:18;2.33;;;1.80;;
21192;SDS011;10754;51.106;7.164;2023-06-14T06:19:43;2.95;;;1.85;;
21192;SDS011;10754;51.106;7.164;2023-06-14T06:22:09;1.88;;;1.63;;
21192;SDS011;10754;51.106;7.164;2023-06-14T06:24:34;2.05;;;1.70;;
21192;SDS011;10754;51.106;7.164;2023-06-14T06:27:00;2.03;;;1.50;;
21192;SDS011;10754;51.106;7.164;2023-06-14T06:29:26;2.72;;;1.45;;
21192;SDS011;10754;51.106;7.164;2023-06-14T06:31:51;1.73;;;1.40;;
21192;SDS011;10754;51.106;7.164;2023-06-14T06:34:17;2.50;;;1.60;;
21192;SDS011;10754;51.106;7.164;2023-06-14T06:36:42;3.15;;;1.60;;
21192;SDS011;10754;51.106;7.164;2023-06-14T06:39:08;1.48;;;1.38;;
21192;SDS011;10754;51.106;7.164;2023-06-14T06:41:35;3.17;;;1.58;;
21192;SDS011;10754;51.106;7.164;2023-06-14T06:44:05;1.65;;;1.50;;
21192;SDS011;10754;51.106;7.164;2023-06-14T06:46:34;3.53;;;1.80;;
21192;SDS011;10754;51.106;7.164;2023-06-14T06:48:59;3.55;;;1.50;;
21192;SDS011;10754;51.106;7.164;2023-06-14T06:51:25;3.05;;;1.50;;
21192;SDS011;10754;51.106;7.164;2023-06-14T06:53:54;2.72;;;1.40;;
21192;SDS011;10754;51.106;7.164;2023-06-14T06:56:20;2.83;;;1.58;;
21192;SDS011;10754;51.106;7.164;2023-06-14T06:58:48;1.35;;;1.17;;
21192;SDS011;10754;51.106;7.164;2023-06-14T07:01:15;3.28;;;1.20;;
21192;SDS011;10754;51.106;7.164;2023-06-14T07:03:40;3.25;;;1.23;;
21192;SDS011;10754;51.106;7.164;2023-06-14T07:06:06;2.95;;;1.30;;
21192;SDS011;10754;51.106;7.164;2023-06-14T07:08:32;4.22;;;1.33;;
21192;SDS011;10754;51.106;7.164;2023-06-14T07:10:57;1.63;;;1.23;;
21192;SDS011;10754;51.106;7.164;2023-06-14T07:13:23;1.30;;;1.20;;
21192;SDS011;10754;51.106;7.164;2023-06-14T07:15:48;1.23;;;1.10;;
21192;SDS011;10754;51.106;7.164;2023-06-14T07:18:14;1.67;;;1.08;;
21192;SDS011;10754;51.106;7.164;2023-06-14T07:20:40;1.48;;;1.30;;
21192;SDS011;10754;51.106;7.164;2023-06-14T07:23:05;2.17;;;1.13;;
21192;SDS011;10754;51.106;7.164;2023-06-14T07:25:31;1.10;;;0.90;;
21192;SDS011;10754;51.106;7.164;2023-06-14T07:27:56;0.80;;;0.70;;
21192;SDS011;10754;51.106;7.164;2023-06-14T07:30:22;1.00;;;0.85;;
21192;SDS011;10754;51.106;7.164;2023-06-14T07:32:50;1.20;;;0.90;;
21192;SDS011;10754;51.106;7.164;2023-06-14T07:35:19;1.20;;;1.10;;
21192;SDS011;10754;51.106;7.164;2023-06-14T07:37:45;1.10;;;0.90;;
21192;SDS011;10754;51.106;7.164;2023-06-14T07:40:12;1.52;;;1.10;;
21192;SDS011;10754;51.106;7.164;2023-06-14T07:42:38;1.00;;;0.90;;
21192;SDS011;10754;51.106;7.164;2023-06-14T07:45:03;2.38;;;0.95;;
21192;SDS011;10754;51.106;7.164;2023-06-14T07:47:29;1.05;;;0.95;;
21192;SDS011;10754;51.106;7.164;2023-06-14T07:49:55;1.58;;;1.08;;
21192;SDS011;10754;51.106;7.164;2023-06-14T07:52:20;1.70;;;1.20;;
21192;SDS011;10754;51.106;7.164;2023-06-14T07:54:47;2.75;;;0.90;;
21192;SDS011;10754;51.106;7.164;2023-06-14T07:57:12;2.10;;;1.17;;
21192;SDS011;10754;51.106;7.164;2023-06-14T07:59:38;2.50;;;1.00;;
21192;SDS011;10754;51.106;7.164;2023-06-14T08:02:03;1.10;;;1.00;;
21192;SDS011;10754;51.106;7.164;2023-06-14T08:04:29;1.70;;;1.02;;
21192;SDS011;10754;51.106;7.164;2023-06-14T08:06:55;2.20;;;1.15;;
21192;SDS011;10754;51.106;7.164;2023-06-14T08:09:21;1.17;;;1.00;;
21192;SDS011;10754;51.106;7.164;2023-06-14T08:11:47;2.33;;;1.10;;
21192;SDS011;10754;51.106;7.164;2023-06-14T08:14:12;1.27;;;1.08;;
21192;SDS011;10754;51.106;7.164;2023-06-14T08:16:38;1.40;;;1.17;;
21192;SDS011;10754;51.106;7.164;2023-06-14T08:19:03;1.42;;;1.08;;
21192;SDS011;10754;51.106;7.164;2023-06-14T08:21:29;0.80;;;0.80;;
21192;SDS011;10754;51.106;7.164;2023-06-14T08:23:55;3.75;;;1.17;;
21192;SDS011;10754;51.106;7.164;2023-06-14T08:26:22;2.03;;;1.00;;
21192;SDS011;10754;51.106;7.164;2023-06-14T08:28:48;1.85;;;0.80;;
21192;SDS011;10754;51.106;7.164;2023-06-14T08:31:14;1.70;;;0.90;;
21192;SDS011;10754;51.106;7.164;2023-06-14T08:33:39;1.20;;;1.05;;
21192;SDS011;10754;51.106;7.164;2023-06-14T08:36:08;1.08;;;0.95;;
21192;SDS011;10754;51.106;7.164;2023-06-14T08:38:33;2.72;;;1.13;;
21192;SDS011;10754;51.106;7.164;2023-06-14T08:40:59;2.53;;;0.98;;
21192;SDS011;10754;51.106;7.164;2023-06-14T08:43:27;1.85;;;0.90;;
21192;SDS011;10754;51.106;7.164;2023-06-14T08:45:53;1.48;;;1.25;;
21192;SDS011;10754;51.106;7.164;2023-06-14T08:48:26;2.25;;;0.90;;
21192;SDS011;10754;51.106;7.164;2023-06-14T08:50:51;1.15;;;0.90;;
21192;SDS011;10754;51.106;7.164;2023-06-14T08:53:26;1.67;;;1.20;;
21192;SDS011;10754;51.106;7.164;2023-06-14T08:55:53;1.92;;;1.20;;
21192;SDS011;10754;51.106;7.164;2023-06-14T08:58:20;1.70;;;1.20;;
21192;SDS011;10754;51.106;7.164;2023-06-14T09:00:49;1.20;;;1.10;;
21192;SDS011;10754;51.106;7.164;2023-06-14T09:03:17;1.65;;;1.13;;
21192;SDS011;10754;51.106;7.164;2023-06-14T09:05:45;2.53;;;1.20;;
21192;SDS011;10754;51.106;7.164;2023-06-14T09:08:11;2.00;;;1.00;;
21192;SDS011;10754;51.106;7.164;2023-06-14T09:10:37;3.47;;;1.00;;
21192;SDS011;10754;51.106;7.164;2023-06-14T09:13:05;1.38;;;0.98;;
21192;SDS011;10754;51.106;7.164;2023-06-14T09:15:31;1.30;;;1.10;;
21192;SDS011;10754;51.106;7.164;2023-06-14T09:17:57;1.30;;;1.08;;
21192;SDS011;10754;51.106;7.164;2023-06-14T09:20:23;2.22;;;1.00;;
21192;SDS011;10754;51.106;7.164;2023-06-14T09:22:49;1.25;;;0.90;;
21192;SDS011;10754;51.106;7.164;2023-06-14T09:25:15;2.17;;;1.05;;
21192;SDS011;10754;51.106;7.164;2023-06-14T09:27:41;1.23;;;0.90;;
21192;SDS011;10754;51.106;7.164;2023-06-14T09:30:10;1.13;;;0.80;;
21192;SDS011;10754;51.106;7.164;2023-06-14T09:32:37;1.10;;;0.95;;
21192;SDS011;10754;51.106;7.164;2023-06-14T09:35:05;5.28;;;4.00;;
21192;SDS011;10754;51.106;7.164;2023-06-14T09:37:32;1.30;;;0.82;;
21192;SDS011;10754;51.106;7.164;2023-06-14T09:39:58;2.70;;;1.20;;
21192;SDS011;10754;51.106;7.164;2023-06-14T09:42:24;6.80;;;5.07;;
21192;SDS011;10754;51.106;7.164;2023-06-14T09:44:53;1.70;;;1.50;;
21192;SDS011;10754;51.106;7.164;2023-06-14T09:47:20;2.20;;;1.13;;
21192;SDS011;10754;51.106;7.164;2023-06-14T09:49:46;1.50;;;0.93;;
21192;SDS011;10754;51.106;7.164;2023-06-14T09:52:16;2.63;;;1.05;;
21192;SDS011;10754;51.106;7.164;2023-06-14T09:54:43;1.40;;;1.05;;
21192;SDS011;10754;51.106;7.164;2023-06-14T09:57:14;1.10;;;1.00;;
21192;SDS011;10754;51.106;7.164;2023-06-14T09:59:41;2.20;;;1.35;;
21192;SDS011;10754;51.106;7.164;2023-06-14T10:02:10;1.60;;;1.00;;
21192;SDS011;10754;51.106;7.164;2023-06-14T10:04:44;1.77;;;1.08;;
21192;SDS011;10754;51.106;7.164;2023-06-14T10:07:20;2.25;;;1.40;;
21192;SDS011;10754;51.106;7.164;2023-06-14T10:09:47;1.65;;;1.00;;
21192;SDS011;10754;51.106;7.164;2023-06-14T10:12:16;2.45;;;1.17;;
21192;SDS011;10754;51.106;7.164;2023-06-14T10:14:46;1.27;;;1.00;;
21192;SDS011;10754;51.106;7.164;2023-06-14T10:17:17;2.67;;;1.30;;
21192;SDS011;10754;51.106;7.164;2023-06-14T10:19:48;1.92;;;1.30;;
21192;SDS011;10754;51.106;7.164;2023-06-14T10:22:24;1.15;;;1.05;;
21192;SDS011;10754;51.106;7.164;2023-06-14T10:24:55;2.20;;;1.30;;
21192;SDS011;10754;51.106;7.164;2023-06-14T10:27:21;1.95;;;1.05;;
21192;SDS011;10754;51.106;7.164;2023-06-14T10:32:18;3.55;;;1.45;;
21192;SDS011;10754;51.106;7.164;2023-06-14T10:34:44;2.15;;;1.30;;
21192;SDS011;10754;51.106;7.164;2023-06-14T10:37:11;2.78;;;1.10;;
21192;SDS011;10754;51.106;7.164;2023-06-14T10:39:39;2.28;;;1.20;;
21192;SDS011;10754;51.106;7.164;2023-06-14T10:42:06;1.77;;;1.10;;
21192;SDS011;10754;51.106;7.164;2023-06-14T10:44:32;12.68;;;4.68;;
21192;SDS011;10754;51.106;7.164;2023-06-14T10:46:59;14.40;;;5.63;;
21192;SDS011;10754;51.106;7.164;2023-06-14T10:49:44;5.03;;;1.90;;
21192;SDS011;10754;51.106;7.164;2023-06-14T10:52:11;4.10;;;1.63;;
21192;SDS011;10754;51.106;7.164;2023-06-14T10:57:36;1.60;;;0.95;;
21192;SDS011;10754;51.106;7.164;2023-06-14T11:00:04;1.52;;;1.00;;
21192;SDS011;10754;51.106;7.164;2023-06-14T11:05:28;1.50;;;1.02;;
21192;SDS011;10754;51.106;7.164;2023-06-14T11:13:06;1.48;;;1.00;;
21192;SDS011;10754;51.106;7.164;2023-06-14T11:15:33;0.85;;;0.70;;
21192;SDS011;10754;51.106;7.164;2023-06-14T11:18:09;3.15;;;0.98;;
21192;SDS011;10754;51.106;7.164;2023-06-14T11:20:35;0.95;;;0.82;;
21192;SDS011;10754;51.106;7.164;2023-06-14T11:23:01;1.50;;;0.82;;
21192;SDS011;10754;51.106;7.164;2023-06-14T11:25:28;0.70;;;0.70;;
21192;SDS011;10754;51.106;7.164;2023-06-14T11:27:54;0.85;;;0.75;;
21192;SDS011;10754;51.106;7.164;2023-06-14T11:30:23;1.17;;;0.85;;
21192;SDS011;10754;51.106;7.164;2023-06-14T11:32:51;1.10;;;1.00;;
21192;SDS011;10754;51.106;7.164;2023-06-14T11:35:18;2.17;;;0.75;;
21192;SDS011;10754;51.106;7.164;2023-06-14T11:37:46;1.55;;;0.95;;
21192;SDS011;10754;51.106;7.164;2023-06-14T11:40:14;0.88;;;0.80;;
21192;SDS011;10754;51.106;7.164;2023-06-14T11:42:40;1.85;;;0.95;;
21192;SDS011;10754;51.106;7.164;2023-06-14T11:45:10;0.95;;;0.75;;
21192;SDS011;10754;51.106;7.164;2023-06-14T11:47:37;1.15;;;0.80;;
21192;SDS011;10754;51.106;7.164;2023-06-14T11:50:04;1.33;;;0.75;;
21192;SDS011;10754;51.106;7.164;2023-06-14T11:52:31;1.40;;;0.90;;
21192;SDS011;10754;51.106;7.164;2023-06-14T11:54:57;0.80;;;0.65;;
21192;SDS011;10754;51.106;7.164;2023-06-14T11:57:23;2.35;;;0.63;;
21192;SDS011;10754;51.106;7.164;2023-06-14T11:59:50;0.60;;;0.60;;
21192;SDS011;10754;51.106;7.164;2023-06-14T12:02:16;0.95;;;0.80;;
21192;SDS011;10754;51.106;7.164;2023-06-14T12:04:42;1.10;;;0.80;;
21192;SDS011;10754;51.106;7.164;2023-06-14T12:07:09;5.40;;;1.00;;
21192;SDS011;10754;51.106;7.164;2023-06-14T12:09:40;0.77;;;0.70;;
21192;SDS011;10754;51.106;7.164;2023-06-14T12:12:08;0.95;;;0.50;;
21192;SDS011;10754;51.106;7.164;2023-06-14T12:14:35;1.60;;;0.75;;
21192;SDS011;10754;51.106;7.164;2023-06-14T12:17:05;0.52;;;0.52;;
21192;SDS011;10754;51.106;7.164;2023-06-14T12:19:41;1.63;;;0.40;;
21192;SDS011;10754;51.106;7.164;2023-06-14T12:22:09;0.50;;;0.50;;
21192;SDS011;10754;51.106;7.164;2023-06-14T12:24:35;0.70;;;0.60;;
21192;SDS011;10754;51.106;7.164;2023-06-14T12:27:00;0.50;;;0.50;;
21192;SDS011;10754;51.106;7.164;2023-06-14T12:29:29;0.50;;;0.50;;
21192;SDS011;10754;51.106;7.164;2023-06-14T12:31:55;0.75;;;0.43;;
21192;SDS011;10754;51.106;7.164;2023-06-14T12:34:22;1.85;;;0.50;;
21192;SDS011;10754;51.106;7.164;2023-06-14T12:36:49;2.58;;;0.68;;
21192;SDS011;10754;51.106;7.164;2023-06-14T12:39:15;0.68;;;0.60;;
21192;SDS011;10754;51.106;7.164;2023-06-14T12:41:40;1.20;;;0.60;;
21192;SDS011;10754;51.106;7.164;2023-06-14T12:44:06;1.38;;;0.68;;
21192;SDS011;10754;51.106;7.164;2023-06-14T12:46:32;0.73;;;0.65;;
21192;SDS011;10754;51.106;7.164;2023-06-14T12:48:59;0.47;;;0.47;;
21192;SDS011;10754;51.106;7.164;2023-06-14T12:51:25;0.90;;;0.50;;
21192;SDS011;10754;51.106;7.164;2023-06-14T12:53:51;0.60;;;0.47;;
21192;SDS011;10754;51.106;7.164;2023-06-14T12:56:17;0.45;;;0.45;;
21192;SDS011;10754;51.106;7.164;2023-06-14T12:58:42;1.38;;;0.60;;
21192;SDS011;10754;51.106;7.164;2023-06-14T13:01:08;0.60;;;0.40;;
21192;SDS011;10754;51.106;7.164;2023-06-14T13:03:34;0.93;;;0.50;;
21192;SDS011;10754;51.106;7.164;2023-06-14T13:06:00;0.82;;;0.63;;
21192;SDS011;10754;51.106;7.164;2023-06-14T13:08:26;1.85;;;0.50;;
21192;SDS011;10754;51.106;7.164;2023-06-14T13:10:53;1.00;;;0.70;;
21192;SDS011;10754;51.106;7.164;2023-06-14T13:13:19;2.25;;;0.70;;
21192;SDS011;10754;51.106;7.164;2023-06-14T13:15:44;0.50;;;0.50;;
21192;SDS011;10754;51.106;7.164;2023-06-14T13:18:11;0.80;;;0.80;;
21192;SDS011;10754;51.106;7.164;2023-06-14T13:20:40;0.52;;;0.52;;
21192;SDS011;10754;51.106;7.164;2023-06-14T13:23:05;1.13;;;0.73;;
21192;SDS011;10754;51.106;7.164;2023-06-14T13:25:32;0.90;;;0.65;;
21192;SDS011;10754;51.106;7.164;2023-06-14T13:27:59;2.90;;;1.13;;
21192;SDS011;10754;51.106;7.164;2023-06-14T13:30:24;1.33;;;0.65;;
21192;SDS011;10754;51.106;7.164;2023-06-14T13:32:50;2.40;;;1.00;;
21192;SDS011;10754;51.106;7.164;2023-06-14T13:35:17;1.05;;;0.70;;
21192;SDS011;10754;51.106;7.164;2023-06-14T13:37:43;0.90;;;0.70;;
21192;SDS011;10754;51.106;7.164;2023-06-14T13:40:09;1.55;;;0.90;;
21192;SDS011;10754;51.106;7.164;2023-06-14T13:42:34;6.85;;;0.90;;
21192;SDS011;10754;51.106;7.164;2023-06-14T13:45:01;2.67;;;0.70;;
21192;SDS011;10754;51.106;7.164;2023-06-14T13:47:27;1.08;;;0.65;;
21192;SDS011;10754;51.106;7.164;2023-06-14T13:49:53;1.85;;;0.63;;
21192;SDS011;10754;51.106;7.164;2023-06-14T13:52:18;0.88;;;0.75;;
21192;SDS011;10754;51.106;7.164;2023-06-14T13:54:44;0.70;;;0.70;;
21192;SDS011;10754;51.106;7.164;2023-06-14T13:57:09;1.48;;;0.70;;
21192;SDS011;10754;51.106;7.164;2023-06-14T13:59:37;1.92;;;0.80;;
21192;SDS011;10754;51.106;7.164;2023-06-14T14:02:03;0.95;;;0.80;;
21192;SDS011;10754;51.106;7.164;2023-06-14T14:04:30;1.60;;;0.90;;
21192;SDS011;10754;51.106;7.164;2023-06-14T14:06:56;2.92;;;0.90;;
21192;SDS011;10754;51.106;7.164;2023-06-14T14:09:22;1.05;;;0.85;;
21192;SDS011;10754;51.106;7.164;2023-06-14T14:11:47;1.25;;;0.80;;
21192;SDS011;10754;51.106;7.164;2023-06-14T14:14:13;1.17;;;0.70;;
21192;SDS011;10754;51.106;7.164;2023-06-14T14:16:39;0.80;;;0.80;;
21192;SDS011;10754;51.106;7.164;2023-06-14T14:19:05;2.72;;;0.60;;
21192;SDS011;10754;51.106;7.164;2023-06-14T14:21:31;0.77;;;0.77;;
21192;SDS011;10754;51.106;7.164;2023-06-14T14:23:57;2.88;;;1.17;;
21192;SDS011;10754;51.106;7.164;2023-06-14T14:26:22;1.25;;;0.80;;
21192;SDS011;10754;51.106;7.164;2023-06-14T14:28:48;1.38;;;1.02;;
21192;SDS011;10754;51.106;7.164;2023-06-14T14:31:14;2.40;;;1.00;;
21192;SDS011;10754;51.106;7.164;2023-06-14T14:33:40;2.35;;;0.80;;
21192;SDS011;10754;51.106;7.164;2023-06-14T14:36:05;2.00;;;1.33;;
21192;SDS011;10754;51.106;7.164;2023-06-14T14:38:32;3.22;;;0.88;;
21192;SDS011;10754;51.106;7.164;2023-06-14T14:40:58;0.98;;;0.90;;
21192;SDS011;10754;51.106;7.164;2023-06-14T14:43:23;2.25;;;1.10;;
21192;SDS011;10754;51.106;7.164;2023-06-14T14:45:49;1.23;;;0.90;;
21192;SDS011;10754;51.106;7.164;2023-06-14T14:48:14;1.65;;;0.95;;
21192;SDS011;10754;51.106;7.164;2023-06-14T14:50:40;1.65;;;0.90;;
21192;SDS011;10754;51.106;7.164;2023-06-14T14:53:05;2.15;;;1.33;;
21192;SDS011;10754;51.106;7.164;2023-06-14T14:55:31;1.58;;;0.82;;
21192;SDS011;10754;51.106;7.164;2023-06-14T14:57:59;1.15;;;1.05;;
21192;SDS011;10754;51.106;7.164;2023-06-14T15:00:25;1.58;;;0.90;;